createdAt,value
2023-06-16T00:01:32.633Z,98716.54
2023-06-16T00:06:34.700Z,98715.48
2023-06-16T00:11:36.673Z,98720.04
2023-06-16T00:16:38.487Z,98719.38
2023-06-16T00:21:42.773Z,98718.02
2023-06-16T00:26:44.469Z,98721.70
2023-06-16T00:31:46.666Z,98717.55
2023-06-16T00:36:48.372Z,98712.48
2023-06-16T00:41:51.949Z,98711.52
2023-06-16T00:46:54.436Z,98707.20
2023-06-16T00:51:56.814Z,98701.55
2023-06-16T00:57:00.448Z,98696.89
2023-06-16T01:02:03.373Z,98697.20
2023-06-16T01:07:12.994Z,98692.13
2023-06-16T01:12:53.375Z,98690.98
2023-06-16T01:18:00.989Z,98683.66
2023-06-16T01:23:26.502Z,98680.38
2023-06-16T01:28:31.616Z,98683.46
2023-06-16T01:33:34.714Z,98680.73
2023-06-16T01:38:37.589Z,98676.42
2023-06-16T01:43:40.518Z,98678.08
2023-06-16T01:48:42.364Z,98673.96
2023-06-16T01:53:44.066Z,98671.38
2023-06-16T01:58:46.257Z,98670.48
2023-06-16T02:04:00.199Z,98669.44
2023-06-16T02:09:05.822Z,98669.05
2023-06-16T02:14:08.195Z,98662.55
2023-06-16T02:19:11.066Z,98661.73
2023-06-16T02:24:13.004Z,98667.66
2023-06-16T02:29:14.773Z,98664.33
2023-06-16T02:34:17.777Z,98666.27
2023-06-16T02:39:20.240Z,98671.41
2023-06-16T02:44:23.203Z,98674.91
2023-06-16T02:49:25.069Z,98685.23
2023-06-16T02:54:26.855Z,98684.54
2023-06-16T02:59:30.101Z,98689.02
2023-06-16T03:04:31.918Z,98693.98
2023-06-16T03:09:41.505Z,98692.72
2023-06-16T03:14:43.925Z,98693.34
2023-06-16T03:19:49.664Z,98696.27
2023-06-16T03:24:53.837Z,98696.66
2023-06-16T03:29:55.643Z,98690.48
2023-06-16T03:34:58.264Z,98692.84
2023-06-16T03:40:07.021Z,98691.58
2023-06-16T03:45:10.330Z,98692.01
2023-06-16T03:50:12.174Z,98687.89
2023-06-16T03:55:16.254Z,98686.87
2023-06-16T04:00:18.691Z,98686.72
2023-06-16T04:07:13.409Z,98692.45
2023-06-16T04:12:16.670Z,98689.64
2023-06-16T04:17:18.504Z,98689.65
2023-06-16T04:22:32.493Z,98687.55
2023-06-16T04:27:34.632Z,98680.67
2023-06-16T04:32:37.826Z,98682.17
2023-06-16T04:37:43.229Z,98675.48
2023-06-16T04:42:48.484Z,98668.70
2023-06-16T04:47:53.941Z,98667.36
2023-06-16T04:52:55.943Z,98660.40
2023-06-16T04:57:57.677Z,98655.44
2023-06-16T05:02:59.574Z,98656.42
2023-06-16T05:08:02.236Z,98655.13
2023-06-16T05:13:04.009Z,98657.48
2023-06-16T05:18:06.883Z,98652.77
2023-06-16T05:23:09.285Z,98649.66
2023-06-16T05:28:11.465Z,98643.58
2023-06-16T05:33:14.310Z,98641.80
2023-06-16T05:38:17.142Z,98648.36
2023-06-16T05:43:19.480Z,98646.45
2023-06-16T05:48:21.569Z,98646.55
2023-06-16T05:53:23.552Z,98649.29
2023-06-16T05:58:25.694Z,98647.20
2023-06-16T06:03:28.724Z,98652.61
2023-06-16T06:08:30.928Z,98652.92
2023-06-16T06:13:33.868Z,98651.64
2023-06-16T06:18:35.888Z,98651.02
2023-06-16T06:23:37.793Z,98649.78
2023-06-16T06:28:39.975Z,98655.42
2023-06-16T06:33:42.458Z,98654.26
2023-06-16T06:38:44.269Z,98651.11
2023-06-16T06:43:46.399Z,98651.09
2023-06-16T06:48:52.386Z,98647.24
2023-06-16T06:53:55.813Z,98649.59
2023-06-16T06:58:57.621Z,98648.98
2023-06-16T07:03:59.441Z,98655.00
2023-06-16T07:09:01.302Z,98652.58
2023-06-16T07:14:03.117Z,98655.53
2023-06-16T07:19:04.891Z,98656.50
2023-06-16T07:24:07.208Z,98656.50
2023-06-16T07:29:08.914Z,98656.61
2023-06-16T07:34:10.718Z,98650.64
2023-06-16T07:39:12.631Z,98645.33
2023-06-16T07:44:14.402Z,98650.48
2023-06-16T07:49:16.334Z,98641.35
2023-06-16T07:54:18.263Z,98641.05
2023-06-16T07:59:19.996Z,98640.08
2023-06-16T08:04:21.855Z,98638.06
2023-06-16T08:09:24.530Z,98641.45
2023-06-16T08:14:27.237Z,98636.73
2023-06-16T08:19:28.990Z,98633.78
2023-06-16T08:24:31.799Z,98634.70
2023-06-16T08:29:34.383Z,98636.88
2023-06-16T08:34:37.590Z,98634.90
2023-06-16T08:39:39.276Z,98638.39
2023-06-16T08:44:41.618Z,98631.49
2023-06-16T08:49:44.404Z,98631.34
2023-06-16T08:54:49.633Z,98625.27
2023-06-16T08:59:56.242Z,98622.00
2023-06-16T09:04:59.772Z,98627.40
2023-06-16T09:10:02.167Z,98624.96
2023-06-16T09:15:09.665Z,98625.23
2023-06-16T09:20:16.594Z,98614.69
2023-06-16T09:25:20.064Z,98608.92
2023-06-16T09:30:23.297Z,98613.00
2023-06-16T09:35:27.893Z,98612.18
2023-06-16T09:40:34.458Z,98606.73
2023-06-16T09:45:36.747Z,98603.86
2023-06-16T09:50:41.547Z,98601.40
2023-06-16T09:55:43.352Z,98597.58
2023-06-16T10:00:46.162Z,98595.35
2023-06-16T10:05:53.919Z,98587.64
2023-06-16T10:10:55.747Z,98591.54
2023-06-16T10:16:00.650Z,98584.92
2023-06-16T10:21:03.394Z,98583.27
2023-06-16T10:26:06.711Z,98588.95
2023-06-16T10:31:12.334Z,98583.60
2023-06-16T10:36:21.609Z,98583.64
2023-06-16T10:41:25.143Z,98578.64
2023-06-16T10:46:27.221Z,98574.86
2023-06-16T10:51:58.068Z,98572.32
2023-06-16T11:02:19.808Z,98564.66
2023-06-16T11:07:34.717Z,98551.77
2023-06-16T11:12:38.432Z,98548.91
2023-06-16T11:17:43.474Z,98554.96
2023-06-16T11:22:45.390Z,98560.37
2023-06-16T11:27:47.423Z,98553.75
2023-06-16T11:32:49.462Z,98544.98
2023-06-16T11:37:57.943Z,98544.31
2023-06-16T11:43:00.710Z,98540.30
2023-06-16T11:48:04.637Z,98539.19
2023-06-16T11:53:06.542Z,98530.86
2023-06-16T11:58:08.319Z,98522.44
2023-06-16T12:03:11.048Z,98519.74
2023-06-16T12:08:12.855Z,98521.99
2023-06-16T12:13:14.565Z,98515.77
2023-06-16T12:18:16.694Z,98517.64
2023-06-16T12:23:21.491Z,98508.91
2023-06-16T12:28:23.230Z,98508.42
2023-06-16T12:33:26.639Z,98507.11
2023-06-16T12:38:33.083Z,98501.84
2023-06-16T12:43:36.897Z,98501.39
2023-06-16T12:48:38.605Z,98497.95
2023-06-16T12:53:45.831Z,98485.81
2023-06-16T12:58:47.864Z,98486.02
2023-06-16T13:03:49.724Z,98485.54
2023-06-16T13:08:51.616Z,98484.85
2023-06-16T13:13:53.904Z,98480.23
2023-06-16T13:18:55.601Z,98476.74
2023-06-16T13:23:57.561Z,98471.14
2023-06-16T13:29:00.226Z,98469.23
2023-06-16T13:34:02.917Z,98467.27
2023-06-16T13:39:05.456Z,98469.36
2023-06-16T13:44:07.349Z,98463.34
2023-06-16T13:49:11.396Z,98459.04
2023-06-16T13:54:14.349Z,98455.42
2023-06-16T13:59:16.057Z,98456.80
2023-06-16T14:04:17.827Z,98450.45
2023-06-16T14:09:19.583Z,98438.94
2023-06-16T14:14:21.717Z,98435.05
2023-06-16T14:19:24.914Z,98431.13
2023-06-16T14:24:26.926Z,98433.18
2023-06-16T14:29:28.807Z,98428.11
2023-06-16T14:34:30.934Z,98428.23
2023-06-16T14:39:32.698Z,98425.91
2023-06-16T14:44:34.626Z,98422.16
2023-06-16T14:49:36.307Z,98413.84
2023-06-16T14:54:38.438Z,98405.25
2023-06-16T14:59:40.223Z,98407.30
2023-06-16T15:04:41.976Z,98409.85
2023-06-16T15:09:43.736Z,98404.67
2023-06-16T15:14:45.455Z,98396.15
2023-06-16T15:19:47.126Z,98395.45
2023-06-16T15:24:48.908Z,98392.92
2023-06-16T15:29:50.838Z,98389.71
2023-06-16T15:34:52.642Z,98386.02
2023-06-16T15:39:54.580Z,98387.35
2023-06-16T15:44:56.305Z,98378.95
2023-06-16T15:49:57.985Z,98368.88
2023-06-16T15:54:59.638Z,98369.73
2023-06-16T16:00:01.461Z,98368.67
2023-06-16T16:05:06.474Z,98369.83
2023-06-16T16:10:09.068Z,98370.13
2023-06-16T16:15:11.415Z,98366.08
2023-06-16T16:20:13.244Z,98364.69
2023-06-16T16:25:14.999Z,98363.38
2023-06-16T16:30:16.882Z,98365.06
2023-06-16T16:35:19.393Z,98369.59
2023-06-16T16:40:21.456Z,98370.47
2023-06-16T16:45:23.420Z,98372.72
2023-06-16T16:50:25.153Z,98380.30
2023-06-16T16:55:36.482Z,98380.94
2023-06-16T17:00:38.816Z,98379.80
2023-06-16T17:05:40.627Z,98374.31
2023-06-16T17:10:42.465Z,98376.23
2023-06-16T17:15:44.390Z,98372.78
2023-06-16T17:20:46.206Z,98371.70
2023-06-16T17:25:47.950Z,98375.80
2023-06-16T17:30:49.688Z,98381.94
2023-06-16T17:35:51.459Z,98381.70
2023-06-16T17:40:56.484Z,98381.00
2023-06-16T17:45:58.245Z,98383.59
2023-06-16T17:50:59.940Z,98379.30
2023-06-16T17:56:05.223Z,98374.98
2023-06-16T18:01:07.213Z,98376.43
2023-06-16T18:06:11.356Z,98385.02
2023-06-16T18:11:13.023Z,98388.79
2023-06-16T18:16:14.794Z,98389.13
2023-06-16T18:21:16.628Z,98383.70
2023-06-16T18:26:18.436Z,98385.66
2023-06-16T18:31:21.431Z,98391.20
2023-06-16T18:36:23.139Z,98397.34
2023-06-16T18:41:24.896Z,98399.81
2023-06-16T18:46:26.650Z,98409.32
2023-06-16T18:51:29.809Z,98409.20
2023-06-16T18:56:33.443Z,98411.46
2023-06-16T19:01:37.237Z,98412.66
2023-06-16T19:06:39.068Z,98417.83
2023-06-16T19:11:40.775Z,98425.38
2023-06-16T19:16:42.791Z,98434.28
2023-06-16T19:21:44.517Z,98446.48
2023-06-16T19:26:46.281Z,98460.19
2023-06-16T19:31:50.344Z,98468.09
2023-06-16T19:36:53.281Z,98471.89
2023-06-16T19:41:55.021Z,98472.16
2023-06-16T19:46:57.074Z,98471.58
2023-06-16T19:51:59.012Z,98472.49
2023-06-16T19:57:00.933Z,98475.04
2023-06-16T20:02:03.427Z,98477.46
2023-06-16T20:07:07.325Z,98478.73
2023-06-16T20:12:09.675Z,98472.98
2023-06-16T20:17:11.475Z,98477.53
2023-06-16T20:22:13.520Z,98473.91
2023-06-16T20:27:15.458Z,98474.12
2023-06-16T20:32:17.290Z,98471.59
2023-06-16T20:37:19.074Z,98473.19
2023-06-16T20:42:23.383Z,98478.17
2023-06-16T20:47:26.132Z,98479.38
2023-06-16T20:52:28.895Z,98478.25
2023-06-16T20:57:30.585Z,98474.44
2023-06-16T21:02:34.966Z,98476.95
2023-06-16T21:07:38.692Z,98482.29
2023-06-16T21:12:40.749Z,98486.31
2023-06-16T21:17:46.545Z,98491.60
2023-06-16T21:22:50.871Z,98490.80
2023-06-16T21:27:52.713Z,98488.81
2023-06-16T21:33:00.348Z,98490.16
2023-06-16T21:38:04.014Z,98492.04
2023-06-16T21:43:05.823Z,98490.16
2023-06-16T21:48:07.727Z,98489.44
2023-06-16T21:53:10.710Z,98488.86
2023-06-16T21:58:15.611Z,98487.18
2023-06-16T22:03:19.256Z,98492.31
2023-06-16T22:08:22.059Z,98495.02
2023-06-16T22:13:23.771Z,98492.41
2023-06-16T22:18:26.070Z,98489.27
2023-06-16T22:23:28.105Z,98487.32
2023-06-16T22:28:30.259Z,98488.80
2023-06-16T22:33:32.081Z,98488.04
2023-06-16T22:38:34.353Z,98484.48
2023-06-16T22:43:36.482Z,98480.02
2023-06-16T22:48:42.075Z,98475.19
2023-06-16T22:53:44.510Z,98476.21
2023-06-16T22:58:46.340Z,98468.97
2023-06-16T23:03:48.155Z,98465.48
2023-06-16T23:08:50.104Z,98458.75
2023-06-16T23:13:58.464Z,98452.58
2023-06-16T23:19:01.305Z,98455.36
2023-06-16T23:24:06.304Z,98458.36
2023-06-16T23:29:08.303Z,98462.88
2023-06-16T23:34:10.064Z,98462.04
2023-06-16T23:39:12.227Z,98465.55
2023-06-16T23:44:13.985Z,98465.23
2023-06-16T23:49:15.669Z,98465.58
2023-06-16T23:54:18.321Z,98463.49
2023-06-16T23:59:22.406Z,98467.64
